createdAt,value
2023-03-01T00:00:11.775Z,3.67
2023-03-01T00:03:00.302Z,3.63
2023-03-01T00:05:49.989Z,3.62
2023-03-01T00:08:38.931Z,3.51
2023-03-01T00:11:31.181Z,3.56
2023-03-01T00:14:19.799Z,3.60
2023-03-01T00:17:09.145Z,3.57
2023-03-01T00:19:57.788Z,3.66
2023-03-01T00:22:47.724Z,3.67
2023-03-01T00:25:43.815Z,3.60
2023-03-01T00:28:33.932Z,3.54
2023-03-01T00:31:25.834Z,3.51
2023-03-01T00:34:14.468Z,3.54
2023-03-01T00:37:06.590Z,3.58
2023-03-01T00:39:56.226Z,3.60
2023-03-01T00:42:44.833Z,3.53
2023-03-01T00:45:37.255Z,3.58
2023-03-01T00:48:26.313Z,3.50
2023-03-01T00:51:16.620Z,3.46
2023-03-01T00:54:05.406Z,3.50
2023-03-01T00:56:55.074Z,3.50
2023-03-01T00:59:44.785Z,3.29
2023-03-01T01:02:36.506Z,3.27
2023-03-01T01:05:25.991Z,3.30
2023-03-01T01:08:15.999Z,3.31
2023-03-01T01:11:05.785Z,3.29
2023-03-01T01:13:54.979Z,3.06
2023-03-01T01:16:45.120Z,3.14
2023-03-01T01:19:36.428Z,3.17
2023-03-01T01:22:25.699Z,3.13
2023-03-01T01:25:15.163Z,3.16
2023-03-01T01:28:03.931Z,3.14
2023-03-01T01:30:53.742Z,3.08
2023-03-01T01:33:42.563Z,2.95
2023-03-01T01:36:34.218Z,2.93
2023-03-01T01:39:24.275Z,2.92
2023-03-01T01:42:17.413Z,2.75
2023-03-01T01:45:29.352Z,2.76
2023-03-01T01:48:23.101Z,2.78
2023-03-01T01:51:14.868Z,2.74
2023-03-01T01:54:12.318Z,2.70
2023-03-01T01:57:04.033Z,2.65
2023-03-01T01:59:57.205Z,2.62
2023-03-01T02:02:49.016Z,2.59
2023-03-01T02:05:44.708Z,2.57
2023-03-01T02:08:37.871Z,2.47
2023-03-01T02:11:29.693Z,2.53
2023-03-01T02:14:18.911Z,2.47
2023-03-01T02:17:07.525Z,2.47
2023-03-01T02:20:09.024Z,2.45
2023-03-01T02:22:57.721Z,2.41
2023-03-01T02:25:53.511Z,2.39
2023-03-01T02:28:47.284Z,2.36
2023-03-01T02:31:45.827Z,2.32
2023-03-01T02:34:35.105Z,2.18
2023-03-01T02:37:26.222Z,2.15
2023-03-01T02:40:18.952Z,2.11
2023-03-01T02:43:12.659Z,2.11
2023-03-01T02:46:07.822Z,2.11
2023-03-01T02:48:58.809Z,2.12
2023-03-01T02:52:08.935Z,2.09
2023-03-01T02:55:03.166Z,2.04
2023-03-01T02:57:53.195Z,2.03
2023-03-01T03:00:46.443Z,2.01
2023-03-01T03:03:39.654Z,1.89
2023-03-01T03:06:29.093Z,1.86
2023-03-01T03:09:18.459Z,1.85
2023-03-01T03:12:08.879Z,1.80
2023-03-01T03:14:57.584Z,1.80
2023-03-01T03:17:47.122Z,1.73
2023-03-01T03:20:37.653Z,1.80
2023-03-01T03:23:27.348Z,1.59
2023-03-01T03:26:16.142Z,1.73
2023-03-01T03:29:05.289Z,1.64
2023-03-01T03:31:54.306Z,1.60
2023-03-01T03:34:43.419Z,1.64
2023-03-01T03:37:50.610Z,1.64
2023-03-01T03:40:42.539Z,1.61
2023-03-01T03:43:33.676Z,1.64
2023-03-01T03:46:22.754Z,1.59
2023-03-01T03:49:11.354Z,1.59
2023-03-01T03:52:00.891Z,1.57
2023-03-01T03:54:51.337Z,1.55
2023-03-01T03:57:39.957Z,1.56
2023-03-01T04:00:29.003Z,1.54
2023-03-01T04:03:20.135Z,1.51
2023-03-01T04:06:08.845Z,1.50
2023-03-01T04:09:01.507Z,1.45
2023-03-01T04:11:51.414Z,1.41
2023-03-01T04:14:42.244Z,1.37
2023-03-01T04:17:31.177Z,1.35
2023-03-01T04:20:26.557Z,1.34
2023-03-01T04:23:19.851Z,1.39
2023-03-01T04:26:10.155Z,1.31
2023-03-01T04:29:00.150Z,1.38
2023-03-01T04:31:52.162Z,1.35
2023-03-01T04:34:40.844Z,1.33
2023-03-01T04:37:30.768Z,1.34
2023-03-01T04:40:19.568Z,1.35
2023-03-01T04:43:09.520Z,1.33
2023-03-01T04:46:05.122Z,1.28
2023-03-01T04:48:53.689Z,1.25
2023-03-01T04:51:43.908Z,1.24
2023-03-01T04:54:33.120Z,1.26
2023-03-01T04:57:22.128Z,1.20
2023-03-01T05:00:21.879Z,1.15
2023-03-01T05:03:11.769Z,1.20
2023-03-01T05:06:01.850Z,1.16
2023-03-01T05:08:50.439Z,1.09
2023-03-01T05:11:39.994Z,1.05
2023-03-01T05:14:29.801Z,1.04
2023-03-01T05:17:19.848Z,0.99
2023-03-01T05:20:12.091Z,0.83
2023-03-01T05:23:06.556Z,0.87
2023-03-01T05:25:55.875Z,0.93
2023-03-01T05:28:45.624Z,0.92
2023-03-01T05:31:34.234Z,0.89
2023-03-01T05:34:26.357Z,0.88
2023-03-01T05:37:16.756Z,0.83
2023-03-01T05:40:06.565Z,0.80
2023-03-01T05:42:58.562Z,0.82
2023-03-01T05:45:47.676Z,0.79
2023-03-01T05:48:37.017Z,0.73
2023-03-01T05:51:25.575Z,0.81
2023-03-01T05:54:15.530Z,0.82
2023-03-01T05:57:04.535Z,0.73
2023-03-01T05:59:53.089Z,0.69
2023-03-01T06:02:42.736Z,0.63
2023-03-01T06:05:31.650Z,0.54
2023-03-01T06:08:21.660Z,0.60
2023-03-01T06:11:11.608Z,0.55
2023-03-01T06:14:00.255Z,0.60
2023-03-01T06:16:48.990Z,0.66
2023-03-01T06:19:38.512Z,0.68
2023-03-01T06:22:27.516Z,0.66
2023-03-01T06:25:21.303Z,0.72
2023-03-01T06:28:11.509Z,0.73
2023-03-01T06:31:00.162Z,0.75
2023-03-01T06:33:50.239Z,0.81
2023-03-01T06:36:39.246Z,0.84
2023-03-01T06:39:29.745Z,0.90
2023-03-01T06:42:20.079Z,0.94
2023-03-01T06:45:11.724Z,0.73
2023-03-01T06:48:05.988Z,0.97
2023-03-01T06:50:54.733Z,0.92
2023-03-01T06:53:43.338Z,0.97
2023-03-01T06:56:32.936Z,0.99
2023-03-01T06:59:21.967Z,1.04
2023-03-01T07:02:14.227Z,1.07
2023-03-01T07:05:02.894Z,1.05
2023-03-01T07:07:51.674Z,1.14
2023-03-01T07:10:41.370Z,1.16
2023-03-01T07:13:30.307Z,1.22
2023-03-01T07:16:21.713Z,1.29
2023-03-01T07:19:11.658Z,1.37
2023-03-01T07:22:00.592Z,1.38
2023-03-01T07:24:49.241Z,1.45
2023-03-01T07:27:38.740Z,1.52
2023-03-01T07:30:29.274Z,1.62
2023-03-01T07:33:19.436Z,1.73
2023-03-01T07:36:11.164Z,1.79
2023-03-01T07:39:03.261Z,1.89
2023-03-01T07:41:51.929Z,1.84
2023-03-01T07:44:44.010Z,1.93
2023-03-01T07:47:32.759Z,2.02
2023-03-01T07:50:22.097Z,2.15
2023-03-01T07:53:12.759Z,2.26
2023-03-01T07:56:06.909Z,2.26
2023-03-01T07:58:55.587Z,2.30
2023-03-01T08:01:44.299Z,2.42
2023-03-01T08:04:34.464Z,2.52
2023-03-01T08:07:23.066Z,2.66
2023-03-01T08:10:14.287Z,3.04
2023-03-01T08:13:02.865Z,3.24
2023-03-01T08:15:52.230Z,3.33
2023-03-01T08:18:41.242Z,3.52
2023-03-01T08:21:29.852Z,3.60
2023-03-01T08:24:18.909Z,3.70
2023-03-01T08:27:09.455Z,3.79
2023-03-01T08:29:58.051Z,3.97
2023-03-01T08:32:47.431Z,4.11
2023-03-01T08:35:36.118Z,4.13
2023-03-01T08:38:25.744Z,4.22
2023-03-01T08:41:14.895Z,4.35
2023-03-01T08:44:05.278Z,4.47
2023-03-01T08:46:55.425Z,4.59
2023-03-01T08:49:44.471Z,4.70
2023-03-01T08:52:34.931Z,4.84
2023-03-01T08:55:23.585Z,4.98
2023-03-01T08:58:12.192Z,5.21
2023-03-01T09:01:04.418Z,5.30
2023-03-01T09:03:53.263Z,5.56
2023-03-01T09:06:42.004Z,5.74
2023-03-01T09:09:30.624Z,5.93
2023-03-01T09:12:20.247Z,5.86
2023-03-01T09:15:10.260Z,6.04
2023-03-01T09:18:01.147Z,6.29
2023-03-01T09:20:49.708Z,6.37
2023-03-01T09:23:41.177Z,6.53
2023-03-01T09:26:30.225Z,6.84
2023-03-01T09:29:19.220Z,6.93
2023-03-01T09:32:09.139Z,6.74
2023-03-01T09:35:08.511Z,6.97
2023-03-01T09:37:57.105Z,7.12
2023-03-01T09:40:47.964Z,7.31
2023-03-01T09:43:56.532Z,6.89
2023-03-01T09:46:47.128Z,7.12
2023-03-01T09:49:39.361Z,7.43
2023-03-01T09:52:34.785Z,7.77
2023-03-01T09:55:32.425Z,8.00
2023-03-01T09:58:39.613Z,8.06
2023-03-01T10:01:35.634Z,8.48
2023-03-01T10:04:36.488Z,8.59
2023-03-01T10:07:38.936Z,8.43
2023-03-01T10:10:30.803Z,8.41
2023-03-01T10:13:29.281Z,8.72
2023-03-01T10:16:23.728Z,8.46
2023-03-01T10:19:16.140Z,8.59
2023-03-01T10:22:13.313Z,8.89
2023-03-01T10:25:05.934Z,8.68
2023-03-01T10:27:59.343Z,8.90
2023-03-01T10:30:48.205Z,8.86
2023-03-01T10:33:41.037Z,8.70
2023-03-01T10:36:34.558Z,8.77
2023-03-01T10:39:25.554Z,9.24
2023-03-01T10:42:28.712Z,9.29
2023-03-01T10:45:27.653Z,9.23
2023-03-01T10:48:20.732Z,9.80
2023-03-01T10:51:10.018Z,10.16
2023-03-01T10:53:59.544Z,10.48
2023-03-01T10:56:50.607Z,10.26
2023-03-01T10:59:41.633Z,10.15
2023-03-01T11:02:33.811Z,10.66
2023-03-01T11:05:26.416Z,10.51
2023-03-01T11:08:15.452Z,10.72
2023-03-01T11:11:16.910Z,10.75
2023-03-01T11:14:25.220Z,11.00
2023-03-01T11:17:21.989Z,11.17
2023-03-01T11:20:28.301Z,10.72
2023-03-01T11:23:18.586Z,11.16
2023-03-01T11:26:12.857Z,11.39
2023-03-01T11:29:07.793Z,11.72
2023-03-01T11:32:00.550Z,12.08
2023-03-01T11:34:58.388Z,12.46
2023-03-01T11:38:01.535Z,12.66
2023-03-01T11:40:56.216Z,12.82
2023-03-01T11:43:53.491Z,12.98
2023-03-01T11:47:19.240Z,13.15
2023-03-01T11:50:17.768Z,13.29
2023-03-01T11:53:31.436Z,13.50
2023-03-01T11:56:30.632Z,13.71
2023-03-01T11:59:53.402Z,13.85
2023-03-01T12:03:19.580Z,13.95
2023-03-01T12:06:31.207Z,14.16
2023-03-01T12:09:33.848Z,14.47
2023-03-01T12:12:40.179Z,14.28
2023-03-01T12:15:42.297Z,14.57
2023-03-01T12:18:47.840Z,14.78
2023-03-01T12:22:01.181Z,15.00
2023-03-01T12:25:33.156Z,15.00
2023-03-01T12:28:46.857Z,15.06
2023-03-01T12:32:02.720Z,15.31
2023-03-01T12:35:28.152Z,15.28
2023-03-01T12:38:35.114Z,15.31
2023-03-01T12:41:39.807Z,15.10
2023-03-01T12:44:45.581Z,15.12
2023-03-01T12:47:54.826Z,15.29
2023-03-01T12:50:46.888Z,15.50
2023-03-01T12:53:40.919Z,15.61
2023-03-01T12:56:33.732Z,15.75
2023-03-01T12:59:30.535Z,15.85
2023-03-01T13:02:29.619Z,15.90
2023-03-01T13:05:41.334Z,15.96
2023-03-01T13:08:39.143Z,16.11
2023-03-01T13:11:28.565Z,16.19
2023-03-01T13:14:46.656Z,16.26
2023-03-01T13:17:45.494Z,16.25
2023-03-01T13:20:48.576Z,16.45
2023-03-01T13:23:39.966Z,16.48
2023-03-01T13:26:29.628Z,16.65
2023-03-01T13:29:28.688Z,16.69
2023-03-01T13:32:38.002Z,16.72
2023-03-01T13:35:46.685Z,16.58
2023-03-01T13:38:42.480Z,16.57
2023-03-01T13:41:54.531Z,16.73
2023-03-01T13:44:45.433Z,16.91
2023-03-01T13:47:37.364Z,16.95
2023-03-01T13:50:29.089Z,16.96
2023-03-01T13:53:22.271Z,17.00
2023-03-01T13:56:15.100Z,16.96
2023-03-01T13:59:08.907Z,17.11
2023-03-01T14:01:59.511Z,17.13
2023-03-01T14:04:58.850Z,17.35
2023-03-01T14:07:53.190Z,17.40
2023-03-01T14:10:52.503Z,17.36
2023-03-01T14:13:56.720Z,17.38
2023-03-01T14:16:56.321Z,17.37
2023-03-01T14:19:49.422Z,17.19
2023-03-01T14:22:38.976Z,17.19
2023-03-01T14:25:31.010Z,17.38
2023-03-01T14:28:25.338Z,17.47
2023-03-01T14:31:41.111Z,17.39
2023-03-01T14:34:36.024Z,17.39
2023-03-01T14:37:28.053Z,17.37
2023-03-01T14:40:25.135Z,17.38
2023-03-01T14:43:25.249Z,17.18
2023-03-01T14:46:21.674Z,17.34
2023-03-01T14:49:14.833Z,17.43
2023-03-01T14:52:06.632Z,17.29
2023-03-01T14:54:56.846Z,17.30
2023-03-01T14:57:49.142Z,17.19
2023-03-01T15:00:39.603Z,17.12
2023-03-01T15:03:34.330Z,17.08
2023-03-01T15:06:25.589Z,16.97
2023-03-01T15:09:17.823Z,16.96
2023-03-01T15:12:36.626Z,16.83
2023-03-01T15:15:38.345Z,16.69
2023-03-01T15:18:31.263Z,16.39
2023-03-01T15:21:25.824Z,16.11
2023-03-01T15:24:21.319Z,16.03
2023-03-01T15:27:20.103Z,15.94
2023-03-01T15:30:19.355Z,15.86
2023-03-01T15:33:29.904Z,15.81
2023-03-01T15:36:41.818Z,15.58
2023-03-01T15:39:44.593Z,15.38
2023-03-01T15:42:39.607Z,15.00
2023-03-01T15:45:30.254Z,14.89
2023-03-01T15:48:22.006Z,14.82
2023-03-01T15:51:15.096Z,14.56
2023-03-01T15:54:08.441Z,14.42
2023-03-01T15:56:58.033Z,13.71
2023-03-01T15:59:47.068Z,14.10
2023-03-01T16:02:35.763Z,13.88
2023-03-01T16:05:27.373Z,13.78
2023-03-01T16:08:16.858Z,13.62
2023-03-01T16:11:16.287Z,13.45
2023-03-01T16:14:06.196Z,13.23
2023-03-01T16:16:54.877Z,13.02
2023-03-01T16:19:43.518Z,12.84
2023-03-01T16:22:32.128Z,12.58
2023-03-01T16:25:22.608Z,12.36
2023-03-01T16:28:13.509Z,12.20
2023-03-01T16:31:03.370Z,11.98
2023-03-01T16:33:54.680Z,11.80
2023-03-01T16:36:44.951Z,11.55
2023-03-01T16:39:34.367Z,11.37
2023-03-01T16:42:23.457Z,11.22
2023-03-01T16:45:23.782Z,11.03
2023-03-01T16:48:14.303Z,10.83
2023-03-01T16:51:03.918Z,10.70
2023-03-01T16:53:53.239Z,10.55
2023-03-01T16:56:42.588Z,10.38
2023-03-01T16:59:31.216Z,10.26
2023-03-01T17:02:21.217Z,10.12
2023-03-01T17:05:13.065Z,9.97
2023-03-01T17:08:01.650Z,9.83
2023-03-01T17:10:51.153Z,9.72
2023-03-01T17:13:41.927Z,9.64
2023-03-01T17:16:30.605Z,9.51
2023-03-01T17:19:24.653Z,9.42
2023-03-01T17:22:14.001Z,9.35
2023-03-01T17:25:04.518Z,9.28
2023-03-01T17:27:53.473Z,9.17
2023-03-01T17:30:46.115Z,9.08
2023-03-01T17:33:35.002Z,9.02
2023-03-01T17:36:26.614Z,8.89
2023-03-01T17:39:15.439Z,8.83
2023-03-01T17:42:07.021Z,8.74
2023-03-01T17:44:55.692Z,8.67
2023-03-01T17:47:45.762Z,8.59
2023-03-01T17:50:40.357Z,8.54
2023-03-01T17:53:31.256Z,8.47
2023-03-01T17:56:19.920Z,8.43
2023-03-01T17:59:09.033Z,8.36
2023-03-01T18:01:58.900Z,8.37
2023-03-01T18:04:48.766Z,8.27
2023-03-01T18:07:37.924Z,8.26
2023-03-01T18:10:28.775Z,8.36
2023-03-01T18:13:17.597Z,8.40
2023-03-01T18:16:07.903Z,8.30
2023-03-01T18:18:57.338Z,8.30
2023-03-01T18:21:46.384Z,8.28
2023-03-01T18:24:35.108Z,8.21
2023-03-01T18:27:27.047Z,8.06
2023-03-01T18:30:16.386Z,8.03
2023-03-01T18:33:05.916Z,7.90
2023-03-01T18:35:55.050Z,7.93
2023-03-01T18:38:43.592Z,7.82
2023-03-01T18:41:33.960Z,7.84
2023-03-01T18:44:24.203Z,7.91
2023-03-01T18:47:15.046Z,7.67
2023-03-01T18:50:05.281Z,7.71
2023-03-01T18:52:54.848Z,7.80
2023-03-01T18:55:43.433Z,7.77
2023-03-01T18:58:32.686Z,7.80
2023-03-01T19:01:25.136Z,7.74
2023-03-01T19:04:15.253Z,7.52
2023-03-01T19:07:03.992Z,7.62
2023-03-01T19:09:53.161Z,7.50
2023-03-01T19:12:42.306Z,7.40
2023-03-01T19:15:30.965Z,7.17
2023-03-01T19:18:21.936Z,7.11
2023-03-01T19:21:12.477Z,6.95
2023-03-01T19:24:03.416Z,6.88
2023-03-01T19:26:52.036Z,6.85
2023-03-01T19:29:41.217Z,6.84
2023-03-01T19:32:29.914Z,6.69
2023-03-01T19:35:21.640Z,6.75
2023-03-01T19:38:10.307Z,6.79
2023-03-01T19:40:59.549Z,6.69
2023-03-01T19:43:48.234Z,6.46
2023-03-01T19:46:37.056Z,6.49
2023-03-01T19:49:29.717Z,6.60
2023-03-01T19:52:19.868Z,6.61
2023-03-01T19:55:10.262Z,6.70
2023-03-01T19:57:58.937Z,6.62
2023-03-01T20:00:48.525Z,6.45
2023-03-01T20:03:37.572Z,6.46
2023-03-01T20:06:26.197Z,6.35
2023-03-01T20:09:21.928Z,6.22
2023-03-01T20:12:10.890Z,6.12
2023-03-01T20:14:59.769Z,6.04
2023-03-01T20:17:48.729Z,6.01
2023-03-01T20:20:37.563Z,5.90
2023-03-01T20:23:27.133Z,5.87
2023-03-01T20:26:19.627Z,5.91
2023-03-01T20:29:09.027Z,5.85
2023-03-01T20:31:58.115Z,5.80
2023-03-01T20:34:47.530Z,5.81
2023-03-01T20:37:36.288Z,5.84
2023-03-01T20:40:28.074Z,5.71
2023-03-01T20:43:18.837Z,5.81
2023-03-01T20:46:09.060Z,5.76
2023-03-01T20:48:58.138Z,5.76
2023-03-01T20:51:46.754Z,5.84
2023-03-01T20:54:36.697Z,5.81
2023-03-01T20:57:25.376Z,5.74
2023-03-01T21:00:16.046Z,5.56
2023-03-01T21:03:06.022Z,5.49
2023-03-01T21:05:56.657Z,5.39
2023-03-01T21:08:45.637Z,5.26
2023-03-01T21:11:34.225Z,5.24
2023-03-01T21:14:23.706Z,5.24
2023-03-01T21:17:16.055Z,5.35
2023-03-01T21:20:06.261Z,5.41
2023-03-01T21:22:54.897Z,5.44
2023-03-01T21:25:45.685Z,5.30
2023-03-01T21:28:35.521Z,5.15
2023-03-01T21:31:27.946Z,4.99
2023-03-01T21:34:17.931Z,4.99
2023-03-01T21:37:08.128Z,4.95
2023-03-01T21:39:57.117Z,4.86
2023-03-01T21:42:49.186Z,4.94
2023-03-01T21:45:37.838Z,4.96
2023-03-01T21:48:27.778Z,4.84
2023-03-01T21:51:19.369Z,4.86
2023-03-01T21:54:09.829Z,4.72
2023-03-01T21:56:58.581Z,4.74
2023-03-01T21:59:47.755Z,4.63
2023-03-01T22:02:36.323Z,4.69
2023-03-01T22:05:26.420Z,4.49
2023-03-01T22:08:16.373Z,4.53
2023-03-01T22:11:06.239Z,4.39
2023-03-01T22:13:56.844Z,4.37
2023-03-01T22:16:48.142Z,4.38
2023-03-01T22:19:36.833Z,4.38
2023-03-01T22:22:25.419Z,4.46
2023-03-01T22:25:15.822Z,4.42
2023-03-01T22:28:05.032Z,4.42
2023-03-01T22:30:53.630Z,4.35
2023-03-01T22:33:42.640Z,4.35
2023-03-01T22:36:32.198Z,4.40
2023-03-01T22:39:22.109Z,4.46
2023-03-01T22:42:12.895Z,4.39
2023-03-01T22:45:01.598Z,4.33
2023-03-01T22:47:50.476Z,4.47
2023-03-01T22:50:39.083Z,4.37
2023-03-01T22:53:27.963Z,4.39
2023-03-01T22:56:18.965Z,4.23
2023-03-01T22:59:12.377Z,4.23
2023-03-01T23:02:01.581Z,4.35
2023-03-01T23:04:50.223Z,4.46
2023-03-01T23:07:38.932Z,4.32
2023-03-01T23:10:27.898Z,4.23
2023-03-01T23:13:17.614Z,4.22
2023-03-01T23:16:08.434Z,4.17
2023-03-01T23:18:59.554Z,4.24
2023-03-01T23:21:50.262Z,4.11
2023-03-01T23:24:40.232Z,4.22
2023-03-01T23:27:30.723Z,4.27
2023-03-01T23:30:21.143Z,4.33
2023-03-01T23:33:11.051Z,4.29
2023-03-01T23:36:03.870Z,4.32
2023-03-01T23:38:54.608Z,4.34
2023-03-01T23:41:44.203Z,4.18
2023-03-01T23:44:33.217Z,4.10
2023-03-01T23:47:24.384Z,4.03
2023-03-01T23:50:14.772Z,3.98
2023-03-01T23:53:04.460Z,3.96
2023-03-01T23:55:55.238Z,3.83
2023-03-01T23:58:46.099Z,3.93
